Time;durP1;ratioP1;P1;durP2;ratioP2;P2;SDS_P1;SDS_P2;PMS_P1;PMS_P2;Temp;Humidity;BMP_temperature;BMP_pressure;BME280_temperature;BME280_humidity;BME280_pressure;Samples;Min_cycle;Max_cycle;Signal;HPM_P1;HPM_P2
2023/09/24 00:02:14;;;;;;;1.55;0.50;;;11.10;99.90;;;;;;5015830;28;20489;-88
2023/09/24 00:04:41;;;;;;;;;;;11.10;99.90;;;;;;5029966;28;20055;-87
2023/09/24 00:07:08;;;;;;;1.02;0.50;;;11.10;99.90;;;;;;5023684;28;19939;-88
2023/09/24 00:09:34;;;;;;;1.55;0.50;;;11.00;99.90;;;;;;5026563;28;20040;-87
2023/09/24 00:11:59;;;;;;;1.73;0.57;;;10.90;99.90;;;;;;5027584;28;20029;-88
2023/09/24 00:14:26;;;;;;;3.05;0.65;;;11.00;99.90;;;;;;5043730;28;20025;-88
2023/09/24 00:16:52;;;;;;;1.33;0.60;;;10.90;99.90;;;;;;5039672;28;20040;-88
2023/09/24 00:19:18;;;;;;;1.83;0.50;;;10.90;99.90;;;;;;5011298;28;20497;-89
2023/09/24 00:21:43;;;;;;;2.28;0.60;;;10.80;99.90;;;;;;5025737;28;20050;-89
2023/09/24 00:24:10;;;;;;;1.38;0.60;;;10.90;99.90;;;;;;5030917;28;20060;-89
2023/09/24 00:26:36;;;;;;;2.35;1.13;;;10.90;99.90;;;;;;5020285;28;20025;-87
2023/09/24 00:29:03;;;;;;;1.85;0.68;;;10.80;99.90;;;;;;5028346;28;20029;-89
2023/09/24 00:31:30;;;;;;;1.42;0.57;;;10.90;99.90;;;;;;5032591;28;20059;-90
2023/09/24 00:33:57;;;;;;;2.45;0.60;;;10.80;99.90;;;;;;5019598;28;20027;-88
2023/09/24 00:36:22;;;;;;;1.60;0.60;;;10.60;99.90;;;;;;5030907;28;20064;-88
2023/09/24 00:38:49;;;;;;;1.25;0.55;;;10.80;99.90;;;;;;5027754;28;20075;-89
2023/09/24 00:41:15;;;;;;;2.33;0.70;;;10.70;99.90;;;;;;5032636;28;20807;-88
2023/09/24 00:43:43;;;;;;;1.80;0.60;;;10.70;99.90;;;;;;5030757;28;20124;-88
2023/09/24 00:46:09;;;;;;;2.42;0.60;;;10.70;99.90;;;;;;5033613;28;20033;-89
2023/09/24 00:48:38;;;;;;;2.53;0.90;;;10.70;99.90;;;;;;5015207;28;20094;-90
2023/09/24 00:51:19;;;;;;;1.58;0.70;;;10.70;99.90;;;;;;5014433;28;20036;-88
2023/09/24 00:53:47;;;;;;;1.92;0.73;;;10.50;99.90;;;;;;5014414;28;20021;-88
2023/09/24 00:56:14;;;;;;;2.50;0.70;;;10.60;99.90;;;;;;5034842;28;20028;-89
2023/09/24 00:58:47;;;;;;;1.95;0.70;;;10.60;99.90;;;;;;5026976;28;20103;-88
2023/09/24 01:01:13;;;;;;;1.52;0.68;;;10.60;99.90;;;;;;5041214;28;20032;-89
2023/09/24 01:03:40;;;;;;;1.33;0.63;;;10.60;99.90;;;;;;5042586;28;20476;-90
2023/09/24 01:06:06;;;;;;;2.65;0.65;;;10.60;99.90;;;;;;5020400;28;20021;-89
2023/09/24 01:08:33;;;;;;;3.03;0.70;;;10.60;99.90;;;;;;5025391;28;20082;-89
2023/09/24 01:11:00;;;;;;;1.92;0.70;;;10.60;99.90;;;;;;5022716;28;20061;-90
2023/09/24 01:13:41;;;;;;;2.05;0.73;;;10.60;99.90;;;;;;5015159;28;20082;-88
2023/09/24 01:16:08;;;;;;;1.60;0.52;;;10.60;99.90;;;;;;5032399;28;20020;-89
2023/09/24 01:18:39;;;;;;;1.88;0.57;;;10.60;99.90;;;;;;5022734;28;20094;-88
2023/09/24 01:21:17;;;;;;;2.17;0.80;;;10.60;99.90;;;;;;5028494;28;20028;-89
2023/09/24 01:23:45;;;;;;;2.50;0.80;;;10.60;99.90;;;;;;5032672;28;20736;-89
2023/09/24 01:26:18;;;;;;;2.83;0.80;;;10.50;99.90;;;;;;5030388;28;20526;-89
2023/09/24 01:28:44;;;;;;;2.42;0.80;;;10.60;99.90;;;;;;5037957;28;20483;-89
2023/09/24 01:31:11;;;;;;;2.92;1.13;;;10.60;99.90;;;;;;5043535;28;20079;-90
2023/09/24 01:33:39;;;;;;;1.60;0.73;;;10.50;99.90;;;;;;5030654;28;20496;-90
2023/09/24 01:36:08;;;;;;;1.77;0.88;;;10.50;99.90;;;;;;5032517;28;20027;-88
2023/09/24 01:38:34;;;;;;;2.45;1.20;;;10.50;99.90;;;;;;5031832;28;20097;-89
2023/09/24 01:41:00;;;;;;;2.28;1.10;;;10.50;99.90;;;;;;5030030;28;20048;-90
2023/09/24 01:43:26;;;;;;;3.97;1.60;;;10.50;99.90;;;;;;5022350;28;20033;-91
2023/09/24 01:45:52;;;;;;;3.10;1.85;;;10.50;99.90;;;;;;5024484;28;20056;-90
2023/09/24 01:48:17;;;;;;;2.30;1.90;;;10.50;99.90;;;;;;5034946;28;20032;-91
2023/09/24 01:50:43;;;;;;;4.15;2.88;;;10.40;99.90;;;;;;5029811;28;20397;-89
2023/09/24 01:53:09;;;;;;;3.47;2.90;;;10.40;99.90;;;;;;5045130;28;20024;-88
2023/09/24 01:55:39;;;;;;;3.92;3.03;;;10.50;99.90;;;;;;5023329;28;20026;-90
2023/09/24 01:58:06;;;;;;;3.65;2.40;;;10.40;99.90;;;;;;5052639;28;20056;-90
2023/09/24 02:00:32;;;;;;;2.78;2.05;;;10.40;99.90;;;;;;5042047;28;20061;-88
2023/09/24 02:02:59;;;;;;;4.25;2.75;;;10.40;99.90;;;;;;5042689;28;20039;-89
2023/09/24 02:05:32;;;;;;;3.45;2.17;;;10.40;99.90;;;;;;5036988;28;20100;-90
2023/09/24 02:07:59;;;;;;;3.63;2.45;;;10.40;99.90;;;;;;5056215;28;20057;-88
2023/09/24 02:10:25;;;;;;;4.93;2.22;;;10.40;99.90;;;;;;5028156;28;20029;-91
2023/09/24 02:12:52;;;;;;;3.45;2.50;;;10.40;99.90;;;;;;5039714;28;20029;-90
2023/09/24 02:15:18;;;;;;;2.22;1.63;;;10.30;99.90;;;;;;5038663;28;20036;-91
2023/09/24 02:17:48;;;;;;;3.72;2.10;;;10.20;99.90;;;;;;5040472;28;20040;-90
2023/09/24 02:20:27;;;;;;;2.75;1.80;;;10.30;99.90;;;;;;5028692;28;20029;-90
2023/09/24 02:22:58;;;;;;;4.72;1.42;;;10.30;99.90;;;;;;5047613;28;20031;-90
2023/09/24 02:25:29;;;;;;;3.08;1.63;;;10.30;99.90;;;;;;5022077;28;20033;-91
2023/09/24 02:27:55;;;;;;;3.08;1.60;;;10.40;99.90;;;;;;5048859;28;20052;-90
2023/09/24 02:30:23;;;;;;;3.47;1.77;;;10.30;99.90;;;;;;5039641;28;20443;-87
2023/09/24 02:32:49;;;;;;;2.65;1.50;;;10.30;99.90;;;;;;5032750;28;20369;-88
2023/09/24 02:35:15;;;;;;;2.28;1.38;;;10.20;99.90;;;;;;5019446;28;20052;-89
2023/09/24 02:37:45;;;;;;;2.03;1.38;;;10.20;99.90;;;;;;5041820;28;20029;-89
2023/09/24 02:40:21;;;;;;;3.47;1.58;;;10.30;99.90;;;;;;5039882;28;20124;-88
2023/09/24 02:42:48;;;;;;;2.45;1.63;;;10.20;99.90;;;;;;5031134;28;20468;-90
2023/09/24 02:45:17;;;;;;;2.80;1.50;;;10.20;99.90;;;;;;5042952;28;20090;-89
2023/09/24 02:47:53;;;;;;;2.20;1.05;;;10.20;99.90;;;;;;5036333;28;20029;-89
2023/09/24 02:50:23;;;;;;;2.85;1.45;;;10.00;99.90;;;;;;5025362;28;20041;-90
2023/09/24 02:52:50;;;;;;;;;;;10.10;99.90;;;;;;5041022;28;20017;-91
2023/09/24 02:55:17;;;;;;;3.78;1.33;;;10.10;99.90;;;;;;5040853;28;19967;-89
2023/09/24 02:57:44;;;;;;;3.17;1.38;;;10.00;99.90;;;;;;5054192;28;20074;-89
2023/09/24 03:00:19;;;;;;;3.03;1.30;;;10.00;99.90;;;;;;5038365;28;20029;-91
2023/09/24 03:02:48;;;;;;;2.90;1.30;;;10.00;99.90;;;;;;5046490;28;20112;-88
2023/09/24 03:05:20;;;;;;;3.08;1.15;;;10.00;99.90;;;;;;5040422;28;20021;-90
2023/09/24 03:07:49;;;;;;;3.55;1.00;;;9.90;99.90;;;;;;5032173;28;20071;-88
2023/09/24 03:10:16;;;;;;;2.78;1.45;;;10.00;99.90;;;;;;5033423;28;20373;-89
2023/09/24 03:12:46;;;;;;;2.03;1.17;;;10.10;99.90;;;;;;5029814;28;20416;-91
2023/09/24 03:15:12;;;;;;;1.98;1.10;;;10.00;99.90;;;;;;5032196;28;20030;-89
2023/09/24 03:17:38;;;;;;;1.85;1.00;;;9.90;99.90;;;;;;5030989;28;20052;-88
2023/09/24 03:20:14;;;;;;;3.17;1.42;;;10.00;99.90;;;;;;5033510;28;20024;-92
2023/09/24 03:22:48;;;;;;;4.60;1.55;;;10.10;99.90;;;;;;5033382;28;20029;-88
2023/09/24 03:25:19;;;;;;;4.53;1.48;;;10.00;99.90;;;;;;5032151;28;20025;-91
2023/09/24 03:27:47;;;;;;;2.58;1.40;;;10.00;99.90;;;;;;5016360;28;20075;-90
2023/09/24 03:30:17;;;;;;;2.70;1.50;;;10.00;99.90;;;;;;5031904;28;20021;-89
2023/09/24 03:32:47;;;;;;;3.72;2.33;;;9.90;99.90;;;;;;5033328;28;20365;-92
2023/09/24 03:35:15;;;;;;;4.05;2.58;;;10.00;99.90;;;;;;5037047;28;20085;-91
2023/09/24 03:37:45;;;;;;;4.30;2.83;;;10.00;99.90;;;;;;5022456;28;20569;-90
2023/09/24 03:40:18;;;;;;;5.43;3.45;;;10.00;99.90;;;;;;5015522;28;20162;-91
2023/09/24 03:42:45;;;;;;;3.40;3.10;;;9.80;99.90;;;;;;5011581;28;20032;-89
2023/09/24 03:45:17;;;;;;;3.65;2.30;;;9.90;99.90;;;;;;5030893;28;20028;-88
2023/09/24 03:47:43;;;;;;;5.65;3.50;;;9.80;99.90;;;;;;5048888;28;20035;-90
2023/09/24 03:50:13;;;;;;;3.47;2.78;;;9.90;99.90;;;;;;5033743;28;20025;-91
2023/09/24 03:52:39;;;;;;;4.55;2.53;;;9.80;99.90;;;;;;5030293;28;20032;-87
2023/09/24 03:55:05;;;;;;;4.07;2.60;;;9.80;99.90;;;;;;5031672;28;20037;-92
2023/09/24 03:57:31;;;;;;;2.72;2.10;;;9.80;99.90;;;;;;5014693;28;20106;-91
2023/09/24 03:59:58;;;;;;;3.85;2.25;;;9.70;99.90;;;;;;5033391;28;20048;-90
2023/09/24 04:02:24;;;;;;;2.92;2.03;;;9.70;99.90;;;;;;5032142;28;20029;-89
2023/09/24 04:04:50;;;;;;;3.28;1.40;;;9.70;99.90;;;;;;5036200;28;20075;-90
2023/09/24 04:07:16;;;;;;;3.25;1.60;;;9.60;99.90;;;;;;5033328;28;20029;-90
2023/09/24 04:09:43;;;;;;;2.00;1.10;;;9.70;99.90;;;;;;5012025;28;20068;-89
2023/09/24 04:12:09;;;;;;;2.15;1.35;;;9.60;99.90;;;;;;5016393;28;20064;-89
2023/09/24 04:14:36;;;;;;;2.75;1.73;;;9.70;99.90;;;;;;5033156;28;20105;-90
2023/09/24 04:17:05;;;;;;;3.45;1.67;;;9.60;99.90;;;;;;5037183;28;20086;-89
2023/09/24 04:19:32;;;;;;;3.22;1.50;;;9.40;99.90;;;;;;5033798;28;20025;-89
2023/09/24 04:21:58;;;;;;;2.08;1.10;;;9.50;99.90;;;;;;5032982;28;20025;-89
2023/09/24 04:24:25;;;;;;;2.53;1.15;;;9.50;99.90;;;;;;5030861;28;20099;-90
2023/09/24 04:26:52;;;;;;;3.45;1.50;;;9.50;99.90;;;;;;5046016;28;20339;-89
2023/09/24 04:29:19;;;;;;;2.58;1.30;;;9.40;99.90;;;;;;5032770;28;20041;-89
2023/09/24 04:31:45;;;;;;;3.05;1.30;;;9.40;99.90;;;;;;5038327;28;20579;-90
2023/09/24 04:34:12;;;;;;;2.13;1.00;;;9.40;99.90;;;;;;5013544;28;20051;-91
2023/09/24 04:36:39;;;;;;;2.22;1.23;;;9.40;99.90;;;;;;5031480;28;20056;-88
2023/09/24 04:39:06;;;;;;;3.35;1.70;;;9.50;99.90;;;;;;5032695;28;20066;-90
2023/09/24 04:41:33;;;;;;;3.55;1.73;;;9.60;99.90;;;;;;5038259;28;20025;-90
2023/09/24 04:43:58;;;;;;;3.15;1.83;;;9.60;99.90;;;;;;5031581;28;20040;-89
2023/09/24 04:46:25;;;;;;;3.40;1.58;;;9.50;99.90;;;;;;5017267;28;20025;-89
2023/09/24 04:48:51;;;;;;;3.90;1.98;;;9.60;99.90;;;;;;5015417;28;20374;-88
2023/09/24 04:51:17;;;;;;;5.07;1.70;;;9.50;99.90;;;;;;5047814;28;20025;-90
2023/09/24 04:53:42;;;;;;;3.00;1.27;;;9.40;99.90;;;;;;5030748;28;20116;-90
2023/09/24 04:56:09;;;;;;;3.33;1.83;;;9.40;99.90;;;;;;5029693;28;20028;-90
2023/09/24 04:58:35;;;;;;;2.72;1.48;;;9.40;99.90;;;;;;5010324;28;20073;-90
2023/09/24 05:01:06;;;;;;;2.60;1.83;;;9.40;99.90;;;;;;5030892;28;20114;-91
2023/09/24 05:03:33;;;;;;;4.32;1.95;;;9.30;99.90;;;;;;5012440;28;20425;-89
2023/09/24 05:05:59;;;;;;;3.38;1.25;;;9.40;99.90;;;;;;5034831;28;20021;-91
2023/09/24 05:08:24;;;;;;;3.80;1.73;;;9.40;99.90;;;;;;5029476;28;20032;-89
2023/09/24 05:10:50;;;;;;;5.85;2.15;;;9.40;99.90;;;;;;5032019;28;20389;-90
2023/09/24 05:13:16;;;;;;;2.83;1.55;;;9.30;99.90;;;;;;5031332;28;20033;-89
2023/09/24 05:15:50;;;;;;;3.40;1.45;;;9.30;99.90;;;;;;5047481;28;20178;-90
2023/09/24 05:18:16;;;;;;;2.22;1.55;;;9.30;99.90;;;;;;5028877;28;20045;-89
2023/09/24 05:20:42;;;;;;;2.65;1.65;;;9.30;99.90;;;;;;5031654;28;20086;-88
2023/09/24 05:23:07;;;;;;;3.83;1.85;;;9.30;99.90;;;;;;5030374;28;20029;-89
2023/09/24 05:25:37;;;;;;;3.17;1.63;;;9.20;99.90;;;;;;5031282;28;20061;-89
2023/09/24 05:28:02;;;;;;;2.55;1.77;;;9.30;99.90;;;;;;5033538;28;20029;-90
2023/09/24 05:30:28;;;;;;;2.45;1.80;;;9.30;99.90;;;;;;5043779;28;20029;-89
2023/09/24 05:32:54;;;;;;;3.58;2.08;;;9.20;99.90;;;;;;5031355;28;20037;-90
2023/09/24 05:35:21;;;;;;;5.75;2.58;;;9.30;99.90;;;;;;5014360;28;20037;-90
2023/09/24 05:37:47;;;;;;;2.40;2.08;;;9.20;99.90;;;;;;5012941;28;20033;-89
2023/09/24 05:40:14;;;;;;;2.72;1.95;;;9.30;99.90;;;;;;5032182;28;20036;-91
2023/09/24 05:42:41;;;;;;;3.63;2.40;;;9.30;99.90;;;;;;5039125;28;20100;-90
2023/09/24 05:45:07;;;;;;;3.25;2.42;;;9.30;99.90;;;;;;5030719;28;20036;-88
2023/09/24 05:47:33;;;;;;;2.50;2.10;;;9.30;99.90;;;;;;5030890;28;20078;-89
2023/09/24 05:49:59;;;;;;;3.78;1.98;;;9.30;99.90;;;;;;5015621;28;20124;-89
2023/09/24 05:52:25;;;;;;;4.00;2.30;;;9.30;99.90;;;;;;5013263;28;20111;-92
2023/09/24 05:54:51;;;;;;;4.05;2.45;;;9.30;99.90;;;;;;5016473;28;20507;-89
2023/09/24 05:57:17;;;;;;;2.97;1.90;;;9.40;99.90;;;;;;5029834;28;20057;-88
2023/09/24 05:59:43;;;;;;;3.80;2.63;;;9.40;99.90;;;;;;5027712;28;20080;-90
2023/09/24 06:02:09;;;;;;;3.22;1.83;;;9.40;99.90;;;;;;5007811;28;20108;-92
2023/09/24 06:04:35;;;;;;;3.08;2.15;;;9.40;99.90;;;;;;5029572;28;20425;-90
2023/09/24 06:07:00;;;;;;;2.63;1.83;;;9.50;99.90;;;;;;5034248;28;20029;-89
2023/09/24 06:09:30;;;;;;;3.80;2.25;;;9.50;99.90;;;;;;5035772;28;20032;-89
2023/09/24 06:11:55;;;;;;;2.35;1.58;;;9.50;99.90;;;;;;5033577;28;20025;-90
2023/09/24 06:14:21;;;;;;;3.20;1.92;;;9.60;99.90;;;;;;5033861;28;20487;-89
2023/09/24 06:16:47;;;;;;;2.72;1.45;;;9.60;99.90;;;;;;5033793;28;20028;-89
2023/09/24 06:19:13;;;;;;;2.83;2.08;;;9.60;99.90;;;;;;5034107;28;20033;-91
2023/09/24 06:21:39;;;;;;;3.08;1.85;;;9.70;99.90;;;;;;5027543;28;20523;-92
2023/09/24 06:24:05;;;;;;;3.47;2.00;;;9.70;99.90;;;;;;5050701;28;20055;-89
2023/09/24 06:26:30;;;;;;;4.80;2.67;;;9.80;99.90;;;;;;5035551;28;20033;-89
2023/09/24 06:28:56;;;;;;;4.78;1.85;;;9.90;99.90;;;;;;5030746;28;20461;-90
2023/09/24 06:31:22;;;;;;;2.70;2.03;;;9.80;99.90;;;;;;5015062;28;20039;-90
2023/09/24 06:33:48;;;;;;;3.70;1.98;;;9.90;99.90;;;;;;5008350;28;20025;-89
2023/09/24 06:36:14;;;;;;;2.55;1.50;;;10.00;99.90;;;;;;5042394;28;20195;-87
2023/09/24 06:38:39;;;;;;;2.55;1.60;;;10.20;99.90;;;;;;5031986;28;20033;-87
2023/09/24 06:41:05;;;;;;;2.60;1.73;;;10.20;99.90;;;;;;5034174;28;20524;-89
2023/09/24 06:43:32;;;;;;;2.75;1.73;;;10.40;99.90;;;;;;5036207;28;20051;-87
2023/09/24 06:45:58;;;;;;;3.17;1.48;;;10.50;99.90;;;;;;5033161;28;20468;-88
2023/09/24 06:48:24;;;;;;;2.80;1.48;;;10.60;99.90;;;;;;5034018;28;20029;-90
2023/09/24 06:50:51;;;;;;;2.08;1.60;;;10.70;99.90;;;;;;5034159;28;20112;-89
2023/09/24 06:53:17;;;;;;;3.17;1.17;;;10.80;99.90;;;;;;5019215;28;20072;-89
2023/09/24 06:55:43;;;;;;;3.67;1.42;;;10.90;99.90;;;;;;5033750;28;20025;-89
2023/09/24 06:58:09;;;;;;;3.13;1.30;;;11.00;99.90;;;;;;5033517;28;21696;-88
2023/09/24 07:00:35;;;;;;;2.95;1.25;;;11.00;99.90;;;;;;5032316;28;20438;-90
2023/09/24 07:03:00;;;;;;;3.28;1.70;;;11.20;99.90;;;;;;5011486;28;20025;-88
2023/09/24 07:05:26;;;;;;;4.68;1.75;;;11.00;99.90;;;;;;5017071;28;20117;-90
2023/09/24 07:07:52;;;;;;;2.20;0.98;;;11.00;99.90;;;;;;5030587;28;20372;-88
2023/09/24 07:10:22;;;;;;;2.70;1.30;;;11.10;99.90;;;;;;5033079;28;20029;-88
2023/09/24 07:12:48;;;;;;;2.35;1.08;;;11.10;99.90;;;;;;5033192;28;20033;-88
2023/09/24 07:15:14;;;;;;;1.90;0.82;;;11.20;99.90;;;;;;5033887;28;20074;-89
2023/09/24 07:17:40;;;;;;;3.15;1.10;;;11.30;99.90;;;;;;5012916;28;20037;-92
2023/09/24 07:20:08;;;;;;;2.47;1.00;;;11.40;99.90;;;;;;5021924;28;20025;-88
2023/09/24 07:22:34;;;;;;;2.25;1.05;;;11.60;99.90;;;;;;5011660;28;20577;-88
2023/09/24 07:24:59;;;;;;;2.50;1.10;;;11.60;99.90;;;;;;5030695;28;20025;-89
2023/09/24 07:27:25;;;;;;;3.17;1.60;;;11.70;99.90;;;;;;5010307;28;20036;-91
2023/09/24 07:29:51;;;;;;;3.15;1.58;;;11.80;99.90;;;;;;5002187;28;20051;-87
2023/09/24 07:32:16;;;;;;;3.95;1.20;;;11.90;99.90;;;;;;5011577;28;20034;-89
2023/09/24 07:34:46;;;;;;;2.95;1.30;;;12.00;99.90;;;;;;5019295;28;20040;-89
2023/09/24 07:37:13;;;;;;;2.05;0.93;;;12.10;99.90;;;;;;5018852;28;20095;-90
2023/09/24 07:39:39;;;;;;;3.13;1.42;;;12.20;99.90;;;;;;5018835;28;20051;-90
2023/09/24 07:42:06;;;;;;;5.53;1.40;;;12.20;99.90;;;;;;5026484;28;20038;-88
2023/09/24 07:44:32;;;;;;;2.50;1.10;;;12.30;99.90;;;;;;5001890;28;20369;-89
2023/09/24 07:46:58;;;;;;;2.42;1.23;;;12.30;99.90;;;;;;5001721;28;20814;-89
2023/09/24 07:49:24;;;;;;;4.68;1.65;;;12.40;99.90;;;;;;5025625;28;20037;-89
2023/09/24 07:51:50;;;;;;;3.00;1.30;;;12.50;99.90;;;;;;4994917;28;20469;-90
2023/09/24 07:54:17;;;;;;;3.08;1.20;;;12.50;99.90;;;;;;5016667;28;20037;-89
2023/09/24 07:56:43;;;;;;;2.20;1.30;;;12.70;99.90;;;;;;5017485;28;20146;-90
2023/09/24 07:59:12;;;;;;;4.53;1.13;;;12.80;99.90;;;;;;5026821;28;20123;-90
2023/09/24 08:01:38;;;;;;;2.92;1.45;;;13.10;99.90;;;;;;5000460;28;20498;-89
2023/09/24 08:04:05;;;;;;;2.63;1.58;;;13.20;99.90;;;;;;5024770;28;20033;-89
2023/09/24 08:06:34;;;;;;;3.22;1.60;;;13.20;99.90;;;;;;5018697;28;20029;-87
2023/09/24 08:09:00;;;;;;;4.47;1.95;;;13.40;99.90;;;;;;4995737;28;20088;-88
2023/09/24 08:11:27;;;;;;;1.90;0.60;;;13.70;99.90;;;;;;5025218;28;20038;-90
2023/09/24 08:13:53;;;;;;;3.10;0.80;;;13.90;99.90;;;;;;5002519;28;20477;-89
2023/09/24 08:16:19;;;;;;;2.83;0.70;;;14.20;99.90;;;;;;5000746;28;20044;-88
2023/09/24 08:18:45;;;;;;;1.65;0.70;;;14.20;99.90;;;;;;5001264;28;20083;-90
2023/09/24 08:21:11;;;;;;;2.03;0.70;;;14.40;99.90;;;;;;5008005;28;20124;-89
2023/09/24 08:23:37;;;;;;;1.90;0.77;;;14.40;99.90;;;;;;5000994;28;20059;-90
2023/09/24 08:26:03;;;;;;;2.78;0.70;;;14.50;99.90;;;;;;5017879;28;20122;-91
2023/09/24 08:28:28;;;;;;;1.55;0.70;;;14.70;99.90;;;;;;5017430;28;20037;-90
2023/09/24 08:30:54;;;;;;;2.92;0.85;;;14.80;99.90;;;;;;5023961;28;20032;-88
2023/09/24 08:33:20;;;;;;;1.60;0.70;;;15.00;99.90;;;;;;5010168;28;20559;-89
2023/09/24 08:35:46;;;;;;;1.95;0.75;;;15.20;99.90;;;;;;5006677;28;20029;-90
2023/09/24 08:38:14;;;;;;;2.63;0.60;;;15.20;99.90;;;;;;5017252;28;20509;-90
2023/09/24 08:40:40;;;;;;;3.80;0.60;;;15.30;99.90;;;;;;4998834;28;20457;-89
2023/09/24 08:43:15;;;;;;;1.55;0.70;;;15.40;99.90;;;;;;5000473;28;20764;-89
2023/09/24 08:45:44;;;;;;;2.03;0.57;;;15.60;99.90;;;;;;4999353;28;20033;-88
2023/09/24 08:48:11;;;;;;;1.73;0.50;;;15.70;99.90;;;;;;5026289;28;20064;-91
2023/09/24 08:50:38;;;;;;;2.20;0.60;;;15.60;99.90;;;;;;5000029;28;20057;-89
2023/09/24 08:53:11;;;;;;;1.67;0.50;;;15.70;99.90;;;;;;5028056;28;20029;-89
2023/09/24 08:55:40;;;;;;;2.97;0.60;;;15.90;99.90;;;;;;5045356;28;20043;-90
2023/09/24 08:58:06;;;;;;;1.88;0.40;;;16.10;99.90;;;;;;5027022;28;20518;-89
2023/09/24 09:00:33;;;;;;;2.15;0.45;;;16.00;99.90;;;;;;5029503;28;20033;-89
2023/09/24 09:03:03;;;;;;;1.42;0.35;;;16.20;99.90;;;;;;5030433;28;20165;-93
2023/09/24 09:05:29;;;;;;;2.65;0.47;;;16.30;99.90;;;;;;5030986;28;20376;-88
2023/09/24 09:07:56;;;;;;;2.60;0.60;;;16.20;99.90;;;;;;5030022;28;20029;-89
2023/09/24 09:10:33;;;;;;;2.47;0.30;;;16.30;99.90;;;;;;5031269;28;20535;-90
2023/09/24 09:13:04;;;;;;;2.65;0.55;;;16.60;99.90;;;;;;5033499;28;20104;-89
2023/09/24 09:15:30;;;;;;;1.42;0.40;;;16.80;99.90;;;;;;5027201;28;20133;-90
2023/09/24 09:18:00;;;;;;;2.15;0.30;;;16.90;99.90;;;;;;5024953;28;20047;-91
2023/09/24 09:20:43;;;;;;;1.15;0.25;;;16.80;99.90;;;;;;5025549;28;20043;-89
2023/09/24 09:23:13;;;;;;;1.13;0.30;;;17.10;99.90;;;;;;5046088;28;20045;-89
2023/09/24 09:25:53;;;;;;;1.50;0.50;;;17.10;99.90;;;;;;5029954;28;20017;-89
2023/09/24 09:28:20;;;;;;;1.33;0.50;;;16.90;99.90;;;;;;5029621;28;20044;-89
2023/09/24 09:31:03;;;;;;;1.60;0.50;;;17.20;99.90;;;;;;5028865;28;20527;-89
2023/09/24 09:33:37;;;;;;;1.35;0.30;;;17.30;99.90;;;;;;5047705;28;20473;-90
2023/09/24 09:36:03;;;;;;;1.38;0.30;;;17.60;99.90;;;;;;5033836;28;20017;-92
2023/09/24 09:38:29;;;;;;;1.88;0.30;;;17.80;99.90;;;;;;5016055;28;20045;-90
2023/09/24 09:40:57;;;;;;;1.70;0.20;;;17.70;99.90;;;;;;5053648;28;20094;-89
2023/09/24 09:43:29;;;;;;;1.15;0.20;;;17.80;99.90;;;;;;5013562;28;20112;-89
2023/09/24 09:45:57;;;;;;;2.50;0.30;;;17.80;99.90;;;;;;5032989;28;20465;-89
2023/09/24 09:48:34;;;;;;;2.13;0.20;;;17.90;99.90;;;;;;5018476;28;20025;-89
2023/09/24 09:51:03;;;;;;;2.33;0.20;;;18.00;99.90;;;;;;5035975;28;20025;-90
2023/09/24 09:53:34;;;;;;;2.72;0.30;;;18.00;99.90;;;;;;5034287;28;20044;-89
2023/09/24 09:56:04;;;;;;;2.10;0.20;;;18.00;99.90;;;;;;5035384;28;20040;-89
2023/09/24 09:58:33;;;;;;;2.33;0.28;;;18.00;99.90;;;;;;5015862;28;20036;-89
2023/09/24 10:01:00;;;;;;;1.48;0.22;;;18.10;99.90;;;;;;5036925;28;20029;-92
2023/09/24 10:03:27;;;;;;;1.88;0.43;;;18.40;99.90;;;;;;5033101;28;20069;-89
2023/09/24 10:05:54;;;;;;;1.27;0.20;;;18.40;99.90;;;;;;5035527;28;20048;-90
2023/09/24 10:08:40;;;;;;;2.28;0.30;;;18.60;99.90;;;;;;5009460;28;20063;-90
2023/09/24 10:11:07;;;;;;;1.58;0.40;;;18.30;99.90;;;;;;5029101;28;20497;-89
2023/09/24 10:13:50;;;;;;;1.25;0.20;;;18.40;99.90;;;;;;5039656;28;20037;-89
2023/09/24 10:16:25;;;;;;;1.38;0.20;;;18.70;99.90;;;;;;5049686;28;20025;-90
2023/09/24 10:18:59;;;;;;;1.50;0.30;;;18.80;99.90;;;;;;5017074;28;20479;-91
2023/09/24 10:21:33;;;;;;;1.75;0.30;;;18.50;99.90;;;;;;5033383;28;20029;-90
2023/09/24 10:24:11;;;;;;;1.85;0.30;;;18.80;99.90;;;;;;5031295;28;20043;-88
2023/09/24 10:26:54;;;;;;;1.70;0.20;;;18.80;99.90;;;;;;5017004;28;20035;-90
2023/09/24 10:29:46;;;;;;;2.47;0.35;;;18.80;99.90;;;;;;5050326;28;20033;-89
2023/09/24 10:32:13;;;;;;;1.67;0.22;;;19.00;99.90;;;;;;5030818;28;20460;-89
2023/09/24 10:34:54;;;;;;;1.58;0.22;;;19.20;99.90;;;;;;5033105;28;20025;-90
2023/09/24 10:37:19;;;;;;;1.17;0.28;;;19.20;99.90;;;;;;5034215;28;20078;-91
2023/09/24 10:40:05;;;;;;;2.28;0.20;;;19.10;99.90;;;;;;5049514;28;20073;-89
2023/09/24 10:42:34;;;;;;;1.23;0.20;;;19.30;99.90;;;;;;5033897;28;20037;-91
2023/09/24 10:45:06;;;;;;;3.58;0.20;;;19.30;99.90;;;;;;5049157;28;20033;-88
2023/09/24 10:47:38;;;;;;;3.17;0.30;;;19.00;99.90;;;;;;5034007;28;20472;-90
2023/09/24 10:50:05;;;;;;;1.67;0.20;;;19.10;99.90;;;;;;5032789;28;20025;-88
2023/09/24 10:52:51;;;;;;;2.35;0.30;;;19.10;99.90;;;;;;5049761;28;20079;-88
2023/09/24 10:55:39;;;;;;;2.80;0.30;;;19.10;99.90;;;;;;5030640;28;20031;-89
2023/09/24 10:58:18;;;;;;;1.48;0.40;;;19.10;99.90;;;;;;5033719;28;20060;-89
2023/09/24 11:00:51;;;;;;;1.02;0.20;;;19.30;99.90;;;;;;5037436;28;20040;-87
2023/09/24 11:03:17;;;;;;;1.30;0.15;;;19.50;99.90;;;;;;5033619;28;20033;-93
2023/09/24 11:05:48;;;;;;;1.13;0.28;;;19.50;99.90;;;;;;5031739;28;20026;-89
2023/09/24 11:08:16;;;;;;;1.42;0.20;;;19.20;99.90;;;;;;5032956;28;20047;-89
2023/09/24 11:10:47;;;;;;;0.85;0.20;;;19.60;99.90;;;;;;5039805;28;20437;-89
2023/09/24 11:13:13;;;;;;;0.95;0.20;;;19.70;99.90;;;;;;5015451;28;20060;-87
2023/09/24 11:15:40;;;;;;;1.05;0.20;;;19.80;99.90;;;;;;5015902;28;20055;-88
2023/09/24 11:18:06;;;;;;;1.15;0.20;;;20.00;99.90;;;;;;5031688;28;20464;-90
2023/09/24 11:20:34;;;;;;;1.65;0.20;;;19.70;99.90;;;;;;5032168;28;20059;-89
2023/09/24 11:23:11;;;;;;;1.63;0.20;;;20.00;99.90;;;;;;5028880;28;20064;-91
2023/09/24 11:25:37;;;;;;;2.03;0.10;;;20.00;99.90;;;;;;5013898;28;20025;-91
2023/09/24 11:28:04;;;;;;;1.90;0.20;;;19.60;99.90;;;;;;5033987;28;20140;-91
2023/09/24 11:30:43;;;;;;;0.88;0.10;;;20.10;99.90;;;;;;5038047;28;20028;-90
2023/09/24 11:33:22;;;;;;;1.75;0.20;;;19.90;99.90;;;;;;5031625;28;20473;-90
2023/09/24 11:35:50;;;;;;;1.52;0.20;;;19.90;99.90;;;;;;5049430;28;20086;-93
2023/09/24 11:38:32;;;;;;;1.50;0.20;;;19.80;99.90;;;;;;5031322;28;20048;-91
2023/09/24 11:41:24;;;;;;;3.38;0.20;;;19.80;99.90;;;;;;5031861;28;20036;-90
2023/09/24 11:43:57;;;;;;;0.77;0.20;;;20.00;99.90;;;;;;5012809;28;20038;-89
2023/09/24 11:46:28;;;;;;;1.45;0.20;;;20.00;99.90;;;;;;5032099;28;20035;-90
2023/09/24 11:48:56;;;;;;;1.48;0.10;;;20.00;99.90;;;;;;5042992;28;20029;-90
2023/09/24 11:51:22;;;;;;;1.20;0.10;;;19.90;99.90;;;;;;5030742;28;20032;-89
2023/09/24 11:53:48;;;;;;;1.15;0.10;;;20.40;99.90;;;;;;5032075;28;20469;-90
2023/09/24 11:56:14;;;;;;;1.25;0.10;;;20.40;99.90;;;;;;5030408;28;20036;-91
2023/09/24 11:58:39;;;;;;;0.82;0.10;;;20.50;99.90;;;;;;5034144;28;20517;-90
2023/09/24 12:01:09;;;;;;;1.23;0.22;;;20.50;99.90;;;;;;5014482;28;20087;-93
2023/09/24 12:03:35;;;;;;;3.08;0.47;;;20.20;99.90;;;;;;5045513;28;20029;-91
2023/09/24 12:06:01;;;;;;;1.88;0.10;;;20.20;99.90;;;;;;5031202;28;20037;-88
2023/09/24 12:08:27;;;;;;;1.40;0.20;;;20.20;99.90;;;;;;5031780;28;20528;-88
2023/09/24 12:10:56;;;;;;;1.13;0.20;;;20.20;99.90;;;;;;5034301;28;20036;-92
2023/09/24 12:13:22;;;;;;;0.55;0.17;;;20.70;99.90;;;;;;5031950;28;20032;-90
2023/09/24 12:15:48;;;;;;;1.15;0.20;;;20.50;99.90;;;;;;5031028;28;20033;-91
2023/09/24 12:18:14;;;;;;;0.60;0.20;;;20.50;99.90;;;;;;5030986;28;20068;-89
2023/09/24 12:20:40;;;;;;;1.02;0.20;;;20.70;99.90;;;;;;5013842;28;20131;-91
2023/09/24 12:23:07;;;;;;;1.92;0.20;;;20.40;99.90;;;;;;5031763;28;20051;-89
2023/09/24 12:25:35;;;;;;;1.35;0.20;;;20.10;99.90;;;;;;5028208;28;20382;-91
2023/09/24 12:28:03;;;;;;;0.90;0.10;;;19.90;99.90;;;;;;5031716;28;20485;-90
2023/09/24 12:30:28;;;;;;;1.63;0.20;;;19.90;99.90;;;;;;5030268;28;20154;-90
2023/09/24 12:32:54;;;;;;;1.52;0.10;;;19.90;99.90;;;;;;5028833;28;20476;-90
2023/09/24 12:35:20;;;;;;;0.63;0.20;;;20.00;99.90;;;;;;5030270;28;20040;-90
2023/09/24 12:37:45;;;;;;;2.25;0.30;;;20.40;99.90;;;;;;5031520;28;20079;-83
2023/09/24 12:40:11;;;;;;;2.70;0.20;;;20.30;99.90;;;;;;5013910;28;20033;-87
2023/09/24 12:42:39;;;;;;;0.75;0.10;;;20.50;99.90;;;;;;5029467;28;20090;-88
2023/09/24 12:45:07;;;;;;;1.50;0.20;;;20.70;99.90;;;;;;5033465;28;20043;-83
2023/09/24 12:47:33;;;;;;;0.90;0.20;;;20.40;99.90;;;;;;5051423;28;20477;-80
2023/09/24 12:50:07;;;;;;;2.30;0.20;;;20.40;99.90;;;;;;5016869;28;20065;-84
2023/09/24 12:52:35;;;;;;;0.68;0.10;;;20.40;99.90;;;;;;4998757;28;20412;-80
2023/09/24 12:55:02;;;;;;;1.00;0.10;;;20.90;99.90;;;;;;5001263;28;20033;-81
2023/09/24 12:57:29;;;;;;;1.70;0.20;;;20.70;99.90;;;;;;4998011;28;20064;-81